createdAt,value
2018-02-04T00:00:29.297Z,34.10
2018-02-04T00:01:29.226Z,33.20
2018-02-04T00:02:29.190Z,33.90
2018-02-04T00:03:29.136Z,34.30
2018-02-04T00:04:29.094Z,32.10
2018-02-04T00:05:29.050Z,33.80
2018-02-04T00:06:29.032Z,32.80
2018-02-04T00:07:28.962Z,32.80
2018-02-04T00:08:28.913Z,34.10
2018-02-04T00:09:28.869Z,32.30
2018-02-04T00:10:28.824Z,34.40
2018-02-04T00:11:28.775Z,33.10
2018-02-04T00:12:28.764Z,33.70
2018-02-04T00:13:28.702Z,33.40
2018-02-04T00:14:28.650Z,32.20
2018-02-04T00:15:28.611Z,29.90
2018-02-04T00:16:28.560Z,31.40
2018-02-04T00:17:28.522Z,28.90
2018-02-04T00:18:28.498Z,29.40
2018-02-04T00:19:28.489Z,28.90
2018-02-04T00:20:28.389Z,28.80
2018-02-04T00:21:28.344Z,28.90
2018-02-04T00:22:28.302Z,27.80
2018-02-04T00:23:28.279Z,27.70
2018-02-04T00:24:28.213Z,27.70
2018-02-04T00:25:28.163Z,28.50
2018-02-04T00:26:28.116Z,28.60
2018-02-04T00:27:28.074Z,28.60
2018-02-04T00:28:28.060Z,27.60
2018-02-04T00:29:28.033Z,27.70
2018-02-04T00:30:27.947Z,29.10
2018-02-04T00:31:27.897Z,28.00
2018-02-04T00:32:27.857Z,27.70
2018-02-04T00:33:27.816Z,27.80
2018-02-04T00:34:27.800Z,29.20
2018-02-04T00:35:27.719Z,28.60
2018-02-04T00:36:27.681Z,26.60
2018-02-04T00:37:27.637Z,27.20
2018-02-04T00:38:27.588Z,25.10
2018-02-04T00:39:27.542Z,25.00
2018-02-04T00:40:27.520Z,25.00
2018-02-04T00:41:27.451Z,24.90
2018-02-04T00:42:27.416Z,24.30
2018-02-04T00:43:27.368Z,22.40
2018-02-04T00:44:27.323Z,23.40
2018-02-04T00:45:27.305Z,24.80
2018-02-04T00:46:27.232Z,23.80
2018-02-04T00:47:27.193Z,22.10
2018-02-04T00:48:27.146Z,22.60
2018-02-04T00:49:27.098Z,21.10
2018-02-04T00:50:27.053Z,23.40
2018-02-04T00:51:27.043Z,22.30
2018-02-04T00:52:26.971Z,23.50
2018-02-04T00:53:26.922Z,23.10
2018-02-04T00:54:26.882Z,22.90
2018-02-04T00:55:26.828Z,23.80
2018-02-04T00:56:26.791Z,23.20
2018-02-04T00:57:26.765Z,24.10
2018-02-04T00:58:26.702Z,23.10
2018-02-04T00:59:26.652Z,22.50
2018-02-04T01:00:26.612Z,22.20
2018-02-04T01:01:26.570Z,22.10
2018-02-04T01:02:26.551Z,21.00
2018-02-04T01:03:26.475Z,21.00
2018-02-04T01:04:26.426Z,20.60
2018-02-04T01:05:26.383Z,19.10
2018-02-04T01:06:26.338Z,18.60
2018-02-04T01:07:26.292Z,19.70
2018-02-04T01:08:26.281Z,19.20
2018-02-04T01:09:26.205Z,18.90
2018-02-04T01:10:26.159Z,19.30
2018-02-04T01:11:26.117Z,18.60
2018-02-04T01:12:26.068Z,19.10
2018-02-04T01:13:26.027Z,18.30
2018-02-04T01:14:26.006Z,19.20
2018-02-04T01:15:25.937Z,19.20
2018-02-04T01:16:25.888Z,19.70
2018-02-04T01:17:25.851Z,19.50
2018-02-04T01:18:25.800Z,19.00
2018-02-04T01:19:25.757Z,18.90
2018-02-04T01:20:25.730Z,19.80
2018-02-04T01:21:25.670Z,19.30
2018-02-04T01:22:25.623Z,19.80
2018-02-04T01:23:25.587Z,18.20
2018-02-04T01:24:25.525Z,19.00
2018-02-04T01:25:25.518Z,18.40
2018-02-04T01:26:25.437Z,19.20
2018-02-04T01:27:25.399Z,18.30
2018-02-04T01:28:25.348Z,19.00
2018-02-04T01:29:25.311Z,18.80
2018-02-04T01:30:25.260Z,18.80
2018-02-04T01:31:25.242Z,19.10
2018-02-04T01:32:25.174Z,18.70
2018-02-04T01:33:25.130Z,18.30
2018-02-04T01:34:25.117Z,18.30
2018-02-04T01:35:25.039Z,18.10
2018-02-04T01:36:25.020Z,18.20
2018-02-04T01:37:24.941Z,19.40
2018-02-04T01:38:24.897Z,18.80
2018-02-04T01:39:24.852Z,19.60
2018-02-04T01:40:24.808Z,18.40
2018-02-04T01:41:24.760Z,19.60
2018-02-04T01:42:24.740Z,18.80
2018-02-04T01:43:24.675Z,18.60
2018-02-04T01:44:24.634Z,19.40
2018-02-04T01:45:24.588Z,19.70
2018-02-04T01:46:24.537Z,19.10
2018-02-04T01:47:24.533Z,19.10
2018-02-04T01:48:24.451Z,19.80
2018-02-04T01:49:24.410Z,19.70
2018-02-04T01:50:24.365Z,20.30
2018-02-04T01:51:24.319Z,19.50
2018-02-04T01:52:24.266Z,20.00
2018-02-04T01:53:24.259Z,20.10
2018-02-04T01:54:24.181Z,20.50
2018-02-04T01:55:24.133Z,20.40
2018-02-04T01:56:24.093Z,19.80
2018-02-04T01:57:24.042Z,19.80
2018-02-04T01:58:24.005Z,20.80
2018-02-04T01:59:23.975Z,20.50
2018-02-04T02:00:23.914Z,20.40
2018-02-04T02:01:23.863Z,21.40
2018-02-04T02:02:23.823Z,20.70
2018-02-04T02:03:23.772Z,21.20
2018-02-04T02:04:23.763Z,22.00
2018-02-04T02:05:23.689Z,21.00
2018-02-04T02:06:23.646Z,21.80
2018-02-04T02:07:23.600Z,22.20
2018-02-04T02:08:23.549Z,23.90
2018-02-04T02:09:23.501Z,22.70
2018-02-04T02:10:23.488Z,22.90
2018-02-04T02:11:23.414Z,23.90
2018-02-04T02:12:23.375Z,23.90
2018-02-04T02:13:23.331Z,23.20
2018-02-04T02:14:23.279Z,23.00
2018-02-04T02:15:23.233Z,23.50
2018-02-04T02:16:23.212Z,23.60
2018-02-04T02:17:23.143Z,23.00
2018-02-04T02:18:23.104Z,22.80
2018-02-04T02:19:23.061Z,23.60
2018-02-04T02:20:23.008Z,23.30
2018-02-04T02:21:23.001Z,24.00
2018-02-04T02:22:22.925Z,23.50
2018-02-04T02:23:22.875Z,23.10
2018-02-04T02:24:22.831Z,24.80
2018-02-04T02:25:22.790Z,24.70
2018-02-04T02:26:22.750Z,24.60
2018-02-04T02:27:22.726Z,23.70
2018-02-04T02:28:22.652Z,24.40
2018-02-04T02:29:22.613Z,25.20
2018-02-04T02:30:22.560Z,24.20
2018-02-04T02:31:22.521Z,24.70
2018-02-04T02:32:22.471Z,24.00
2018-02-04T02:33:22.459Z,23.90
2018-02-04T02:34:22.384Z,23.70
2018-02-04T02:35:22.341Z,23.50
2018-02-04T02:36:22.305Z,23.40
2018-02-04T02:37:22.251Z,23.40
2018-02-04T02:38:22.207Z,23.10
2018-02-04T02:39:22.192Z,23.20
2018-02-04T02:40:22.112Z,23.20
2018-02-04T02:41:22.068Z,23.20
2018-02-04T02:42:22.021Z,23.30
2018-02-04T02:43:21.975Z,22.90
2018-02-04T02:44:21.936Z,23.20
2018-02-04T02:45:21.915Z,23.10
2018-02-04T02:46:21.851Z,22.40
2018-02-04T02:47:21.804Z,23.20
2018-02-04T02:48:21.755Z,22.80
2018-02-04T02:49:21.714Z,22.80
2018-02-04T02:50:21.662Z,23.00
2018-02-04T02:51:21.639Z,22.60
2018-02-04T02:52:21.580Z,22.50
2018-02-04T02:53:21.536Z,22.80
2018-02-04T02:54:21.489Z,22.30
2018-02-04T02:55:21.440Z,22.30
2018-02-04T02:56:21.418Z,22.80
2018-02-04T02:57:21.356Z,21.10
2018-02-04T02:58:21.307Z,21.80
2018-02-04T02:59:21.258Z,21.60
2018-02-04T03:00:21.218Z,20.40
2018-02-04T03:01:21.203Z,21.10
2018-02-04T03:02:21.127Z,20.40
2018-02-04T03:03:21.076Z,21.10
2018-02-04T03:04:21.039Z,20.70
2018-02-04T03:05:20.990Z,21.70
2018-02-04T03:06:20.949Z,21.90
2018-02-04T03:07:20.930Z,21.50
2018-02-04T03:08:20.859Z,21.70
2018-02-04T03:09:20.814Z,20.60
2018-02-04T03:10:20.772Z,20.20
2018-02-04T03:11:20.720Z,20.60
2018-02-04T03:12:20.678Z,19.40
2018-02-04T03:13:20.652Z,19.20
2018-02-04T03:14:20.592Z,19.60
2018-02-04T03:15:20.538Z,19.40
2018-02-04T03:16:20.493Z,19.30
2018-02-04T03:17:20.448Z,19.20
2018-02-04T03:18:20.438Z,19.70
2018-02-04T03:19:20.364Z,19.70
2018-02-04T03:20:20.320Z,19.70
2018-02-04T03:21:20.272Z,19.70
2018-02-04T03:22:20.222Z,19.40
2018-02-04T03:23:20.177Z,20.50
2018-02-04T03:24:20.163Z,19.80
2018-02-04T03:25:20.086Z,19.60
2018-02-04T03:26:20.042Z,19.80
2018-02-04T03:27:20.003Z,19.80
2018-02-04T03:28:19.956Z,19.70
2018-02-04T03:29:19.935Z,18.30
2018-02-04T03:30:19.864Z,19.20
2018-02-04T03:31:19.824Z,18.30
2018-02-04T03:32:19.770Z,18.70
2018-02-04T03:33:19.729Z,17.80
2018-02-04T03:34:19.681Z,18.00
2018-02-04T03:35:19.666Z,17.30
2018-02-04T03:36:19.595Z,18.00
2018-02-04T03:37:19.551Z,17.90
2018-02-04T03:38:19.510Z,17.20
2018-02-04T03:39:19.461Z,17.10
2018-02-04T03:40:19.443Z,17.20
2018-02-04T03:41:19.372Z,17.50
2018-02-04T03:42:19.319Z,17.50
2018-02-04T03:43:19.280Z,16.90
2018-02-04T03:44:19.225Z,17.10
2018-02-04T03:45:19.184Z,16.60
2018-02-04T03:46:19.167Z,15.20
2018-02-04T03:47:19.098Z,15.60
2018-02-04T03:48:19.048Z,14.60
2018-02-04T03:49:19.004Z,14.40
2018-02-04T03:50:18.959Z,14.80
2018-02-04T03:51:18.913Z,15.70
2018-02-04T03:52:18.895Z,15.40
2018-02-04T03:53:18.827Z,14.50
2018-02-04T03:54:18.786Z,14.30
2018-02-04T03:55:18.738Z,14.80
2018-02-04T03:56:18.686Z,15.10
2018-02-04T03:57:18.680Z,14.80
2018-02-04T03:58:18.596Z,14.30
2018-02-04T03:59:18.556Z,14.30
2018-02-04T04:00:18.504Z,14.80
2018-02-04T04:01:18.466Z,13.60
2018-02-04T04:02:18.415Z,13.60
2018-02-04T04:03:18.403Z,14.60
2018-02-04T04:04:18.329Z,13.80
2018-02-04T04:05:18.280Z,13.20
2018-02-04T04:06:18.238Z,14.10
2018-02-04T04:07:18.208Z,13.00
2018-02-04T04:08:18.153Z,13.00
2018-02-04T04:09:18.127Z,13.80
2018-02-04T04:10:18.052Z,12.90
2018-02-04T04:11:18.010Z,12.40
2018-02-04T04:12:17.975Z,12.50
2018-02-04T04:13:17.926Z,11.80
2018-02-04T04:14:17.906Z,12.10
2018-02-04T04:15:17.832Z,12.00
2018-02-04T04:16:17.795Z,12.50
2018-02-04T04:17:17.771Z,12.10
2018-02-04T04:18:17.697Z,11.80
2018-02-04T04:19:17.650Z,12.30
2018-02-04T04:20:17.628Z,12.40
2018-02-04T04:21:17.562Z,10.90
2018-02-04T04:22:17.516Z,11.20
2018-02-04T04:23:17.465Z,11.10
2018-02-04T04:24:17.424Z,11.40
2018-02-04T04:25:17.381Z,12.20
2018-02-04T04:26:17.359Z,11.60
2018-02-04T04:27:17.285Z,11.50
2018-02-04T04:28:17.248Z,11.80
2018-02-04T04:29:17.192Z,11.50
2018-02-04T04:30:17.153Z,11.60
2018-02-04T04:31:17.108Z,11.50
2018-02-04T04:32:17.082Z,12.00
2018-02-04T04:33:17.011Z,11.90
2018-02-04T04:34:16.968Z,11.80
2018-02-04T04:35:16.924Z,11.40
2018-02-04T04:36:16.874Z,11.70
2018-02-04T04:37:16.859Z,11.50
2018-02-04T04:38:16.794Z,11.10
2018-02-04T04:39:16.741Z,11.50
2018-02-04T04:40:16.696Z,11.30
2018-02-04T04:41:16.657Z,11.50
2018-02-04T04:42:16.631Z,11.80
2018-02-04T04:43:16.558Z,11.20
2018-02-04T04:44:16.516Z,11.50
2018-02-04T04:45:16.472Z,11.00
2018-02-04T04:46:16.418Z,11.00
2018-02-04T04:47:16.413Z,10.60
2018-02-04T04:48:16.334Z,10.80
2018-02-04T04:49:16.291Z,10.50
2018-02-04T04:50:16.247Z,10.80
2018-02-04T04:51:16.203Z,10.60
2018-02-04T04:52:16.157Z,10.50
2018-02-04T04:53:16.136Z,10.20
2018-02-04T04:54:16.067Z,10.50
2018-02-04T04:55:16.011Z,10.30
2018-02-04T04:56:15.974Z,10.10
2018-02-04T04:57:15.923Z,10.20
2018-02-04T04:58:15.884Z,10.20
2018-02-04T04:59:15.856Z,10.10
2018-02-04T05:00:15.791Z,9.40
2018-02-04T05:01:15.742Z,9.20
2018-02-04T05:02:15.694Z,9.10
2018-02-04T05:03:15.648Z,8.30
2018-02-04T05:04:15.641Z,8.00
2018-02-04T05:05:15.565Z,7.70
2018-02-04T05:06:15.534Z,7.70
2018-02-04T05:07:15.474Z,7.40
2018-02-04T05:08:15.428Z,7.30
2018-02-04T05:09:15.385Z,7.20
2018-02-04T05:10:15.366Z,6.90
2018-02-04T05:11:15.294Z,6.60
2018-02-04T05:12:15.255Z,6.80
2018-02-04T05:13:15.206Z,6.50
2018-02-04T05:14:15.152Z,6.60
2018-02-04T05:15:15.114Z,6.60
2018-02-04T05:16:15.090Z,6.70
2018-02-04T05:17:15.077Z,6.20
2018-02-04T05:18:14.970Z,6.40
2018-02-04T05:19:14.921Z,6.10
2018-02-04T05:20:14.882Z,5.80
2018-02-04T05:21:14.868Z,6.30
2018-02-04T05:22:14.794Z,6.10
2018-02-04T05:23:14.748Z,5.80
2018-02-04T05:24:14.698Z,5.80
2018-02-04T05:25:14.651Z,5.60
2018-02-04T05:26:14.604Z,5.60
2018-02-04T05:27:14.590Z,5.60
2018-02-04T05:28:14.510Z,6.10
2018-02-04T05:29:14.466Z,6.10
2018-02-04T05:30:14.433Z,5.90
2018-02-04T05:31:14.380Z,5.80
2018-02-04T05:32:14.329Z,5.50
2018-02-04T05:33:14.319Z,5.30
2018-02-04T05:34:14.246Z,5.60
2018-02-04T05:35:14.194Z,5.20
2018-02-04T05:36:14.147Z,5.40
2018-02-04T05:37:14.109Z,5.10
2018-02-04T05:38:14.065Z,5.20
2018-02-04T05:39:14.036Z,5.30
2018-02-04T05:40:13.970Z,4.90
2018-02-04T05:41:13.920Z,5.20
2018-02-04T05:42:13.881Z,4.90
2018-02-04T05:43:13.827Z,5.10
2018-02-04T05:44:13.793Z,4.70
2018-02-04T05:45:13.765Z,4.80
2018-02-04T05:46:13.696Z,4.60
2018-02-04T05:47:13.646Z,4.40
2018-02-04T05:48:13.607Z,4.90
2018-02-04T05:49:13.555Z,4.80
2018-02-04T05:50:13.510Z,4.40
2018-02-04T05:51:13.495Z,4.70
2018-02-04T05:52:13.424Z,4.50
2018-02-04T05:53:13.379Z,4.90
2018-02-04T05:54:13.332Z,4.70
2018-02-04T05:55:13.291Z,5.00
2018-02-04T05:56:13.234Z,5.00
2018-02-04T05:57:13.218Z,4.80
2018-02-04T05:58:13.151Z,4.20
2018-02-04T05:59:13.105Z,4.40
2018-02-04T06:00:13.062Z,4.50
2018-02-04T06:01:13.017Z,4.30
2018-02-04T06:02:12.965Z,4.30
2018-02-04T06:03:12.943Z,4.30
2018-02-04T06:04:12.872Z,4.20
2018-02-04T06:05:12.832Z,4.80
2018-02-04T06:06:12.795Z,4.50
2018-02-04T06:07:12.734Z,4.20
2018-02-04T06:08:12.690Z,4.90
2018-02-04T06:09:12.675Z,4.40
2018-02-04T06:10:12.606Z,4.40
2018-02-04T06:11:12.556Z,4.40
2018-02-04T06:12:12.507Z,4.60
2018-02-04T06:13:12.468Z,4.50
2018-02-04T06:14:12.440Z,4.50
2018-02-04T06:15:12.377Z,4.20
2018-02-04T06:16:12.327Z,4.70
2018-02-04T06:17:12.287Z,4.60
2018-02-04T06:18:12.236Z,4.20
2018-02-04T06:19:12.220Z,4.70
2018-02-04T06:20:12.143Z,4.30
2018-02-04T06:21:12.102Z,4.20
2018-02-04T06:22:12.060Z,4.20
2018-02-04T06:23:12.013Z,4.40
2018-02-04T06:24:11.966Z,4.30
2018-02-04T06:25:11.952Z,4.80
2018-02-04T06:26:11.880Z,4.60
2018-02-04T06:27:11.831Z,4.70
2018-02-04T06:28:11.788Z,4.40
2018-02-04T06:29:11.742Z,4.50
2018-02-04T06:30:11.691Z,4.30
2018-02-04T06:31:11.676Z,4.00
2018-02-04T06:32:11.600Z,4.30
2018-02-04T06:33:11.553Z,3.90
2018-02-04T06:34:11.507Z,4.10
2018-02-04T06:35:11.469Z,4.00
2018-02-04T06:36:11.417Z,4.00
2018-02-04T06:37:11.404Z,4.40
2018-02-04T06:38:11.329Z,4.00
2018-02-04T06:39:11.281Z,4.40
2018-02-04T06:40:11.238Z,4.70
2018-02-04T06:41:11.197Z,4.20
2018-02-04T06:42:11.179Z,4.30
2018-02-04T06:43:11.105Z,4.50
2018-02-04T06:44:11.059Z,4.40
2018-02-04T06:45:11.009Z,4.70
2018-02-04T06:46:10.971Z,4.70
2018-02-04T06:47:10.920Z,4.50
2018-02-04T06:48:10.912Z,4.00
2018-02-04T06:49:10.831Z,4.20
2018-02-04T06:50:10.787Z,6.50
2018-02-04T06:51:10.736Z,4.70
2018-02-04T06:52:10.691Z,4.60
2018-02-04T06:53:10.646Z,4.00
2018-02-04T06:54:10.629Z,4.20
2018-02-04T06:55:10.554Z,4.10
2018-02-04T06:56:10.516Z,4.20
2018-02-04T06:57:10.471Z,3.90
2018-02-04T06:58:10.426Z,4.10
2018-02-04T06:59:10.380Z,4.10
2018-02-04T07:00:10.360Z,4.00
2018-02-04T07:01:10.282Z,4.30
2018-02-04T07:02:10.242Z,4.10
2018-02-04T07:03:10.200Z,4.40
2018-02-04T07:04:10.155Z,4.70
2018-02-04T07:05:10.111Z,4.60
2018-02-04T07:06:10.088Z,4.40
2018-02-04T07:07:10.020Z,4.60
2018-02-04T07:08:09.970Z,4.60
2018-02-04T07:09:09.931Z,4.50
2018-02-04T07:10:09.888Z,4.50
2018-02-04T07:11:09.843Z,4.50
2018-02-04T07:12:09.818Z,4.60
2018-02-04T07:13:09.754Z,4.90
2018-02-04T07:14:09.700Z,4.80
2018-02-04T07:15:09.656Z,4.70
2018-02-04T07:16:09.620Z,4.70
2018-02-04T07:17:09.569Z,4.50
2018-02-04T07:18:09.548Z,5.20
2018-02-04T07:19:09.485Z,5.20
2018-02-04T07:20:09.439Z,5.20
2018-02-04T07:21:09.388Z,5.30
2018-02-04T07:22:09.346Z,5.40
2018-02-04T07:23:09.304Z,5.50
2018-02-04T07:24:09.291Z,5.70
2018-02-04T07:25:09.219Z,5.50
2018-02-04T07:26:09.165Z,5.40
2018-02-04T07:27:09.122Z,5.40
2018-02-04T07:28:09.077Z,5.40
2018-02-04T07:29:09.085Z,5.20
2018-02-04T07:30:09.024Z,5.40
2018-02-04T07:31:08.949Z,5.50
2018-02-04T07:32:08.900Z,5.50
2018-02-04T07:33:08.870Z,5.90
2018-02-04T07:34:08.808Z,6.00
2018-02-04T07:35:08.768Z,5.20
2018-02-04T07:36:08.747Z,5.70
2018-02-04T07:37:08.689Z,5.80
2018-02-04T07:38:08.633Z,5.70
2018-02-04T07:39:08.592Z,5.70
2018-02-04T07:40:08.541Z,6.10
2018-02-04T07:41:08.499Z,6.00
2018-02-04T07:42:08.479Z,5.60
2018-02-04T07:43:08.407Z,6.10
2018-02-04T07:44:08.370Z,5.50
2018-02-04T07:45:08.326Z,5.30
2018-02-04T07:46:08.280Z,5.80
2018-02-04T07:47:08.260Z,5.80
2018-02-04T07:48:08.184Z,5.80
2018-02-04T07:49:08.151Z,5.30
2018-02-04T07:50:08.101Z,5.70
2018-02-04T07:51:08.048Z,5.80
2018-02-04T07:52:08.032Z,5.60
2018-02-04T07:53:07.968Z,6.10
2018-02-04T07:54:07.925Z,6.00
2018-02-04T07:55:07.876Z,5.80
2018-02-04T07:56:07.833Z,6.00
2018-02-04T07:57:07.795Z,5.70
2018-02-04T07:58:07.764Z,6.30
2018-02-04T07:59:07.696Z,6.10
2018-02-04T08:00:07.648Z,6.30
2018-02-04T08:01:07.603Z,5.60
2018-02-04T08:02:07.566Z,6.00
2018-02-04T08:03:07.520Z,5.60
2018-02-04T08:04:07.493Z,6.00
2018-02-04T08:05:07.428Z,6.30
2018-02-04T08:06:07.381Z,6.20
2018-02-04T08:07:07.342Z,6.30
2018-02-04T08:08:07.300Z,6.20
2018-02-04T08:09:07.282Z,6.00
2018-02-04T08:10:07.207Z,6.10
2018-02-04T08:11:07.165Z,6.20
2018-02-04T08:12:07.114Z,6.40
2018-02-04T08:13:07.076Z,6.20
2018-02-04T08:14:07.033Z,6.40
2018-02-04T08:15:07.016Z,6.50
2018-02-04T08:16:06.938Z,6.20
2018-02-04T08:17:06.901Z,6.30
2018-02-04T08:18:06.852Z,6.40
2018-02-04T08:19:06.805Z,6.20
2018-02-04T08:20:06.769Z,6.30
2018-02-04T08:21:06.747Z,6.30
2018-02-04T08:22:06.675Z,6.00
2018-02-04T08:23:06.631Z,6.10
2018-02-04T08:24:06.591Z,6.30
2018-02-04T08:25:06.544Z,6.20
2018-02-04T08:26:06.506Z,6.00
2018-02-04T08:27:06.484Z,5.60
2018-02-04T08:28:06.416Z,6.20
2018-02-04T08:29:06.376Z,6.30
2018-02-04T08:30:06.331Z,6.00
2018-02-04T08:31:06.280Z,5.80
2018-02-04T08:32:06.277Z,6.40
2018-02-04T08:33:06.193Z,6.30
2018-02-04T08:34:06.157Z,5.80
2018-02-04T08:35:06.105Z,5.90
2018-02-04T08:36:06.065Z,5.80
2018-02-04T08:37:06.019Z,6.20
2018-02-04T08:38:06.013Z,5.80
2018-02-04T08:39:06.069Z,5.80
2018-02-04T08:40:05.954Z,5.70
2018-02-04T08:41:05.981Z,5.70
2018-02-04T08:42:05.849Z,5.60
2018-02-04T08:43:06.808Z,5.70
2018-02-04T08:44:05.791Z,5.40
2018-02-04T08:45:05.691Z,5.60
2018-02-04T08:46:05.652Z,5.90
2018-02-04T08:47:05.600Z,5.50
2018-02-04T08:48:05.720Z,5.60
2018-02-04T08:49:05.563Z,5.40
2018-02-04T08:50:05.489Z,5.50
2018-02-04T08:51:05.448Z,5.50
2018-02-04T08:52:05.406Z,5.70
2018-02-04T08:53:05.377Z,5.70
2018-02-04T08:54:05.328Z,5.40
2018-02-04T08:55:05.320Z,5.50
2018-02-04T08:56:05.254Z,5.60
2018-02-04T08:57:05.222Z,5.70
2018-02-04T08:58:05.186Z,7.00
2018-02-04T08:59:05.141Z,5.90
2018-02-04T09:00:05.104Z,6.10
2018-02-04T09:01:05.090Z,6.10
2018-02-04T09:02:05.025Z,6.40
2018-02-04T09:03:04.998Z,6.20
2018-02-04T09:04:04.992Z,6.50
2018-02-04T09:05:04.907Z,6.70
2018-02-04T09:06:04.892Z,6.20
2018-02-04T09:07:04.843Z,6.10
2018-02-04T09:08:04.788Z,6.20
2018-02-04T09:09:04.756Z,6.40
2018-02-04T09:10:04.716Z,6.50
2018-02-04T09:11:04.680Z,6.60
2018-02-04T09:12:04.664Z,6.70
2018-02-04T09:13:04.597Z,6.90
2018-02-04T09:14:04.577Z,6.80
2018-02-04T09:15:04.513Z,7.10
2018-02-04T09:16:04.475Z,6.90
2018-02-04T09:17:04.438Z,7.00
2018-02-04T09:18:04.421Z,7.20
2018-02-04T09:19:04.349Z,7.30
2018-02-04T09:20:04.303Z,7.40
2018-02-04T09:21:04.272Z,7.40
2018-02-04T09:22:04.233Z,7.70
2018-02-04T09:23:04.190Z,7.20
2018-02-04T09:24:04.172Z,7.80
2018-02-04T09:25:04.104Z,7.50
2018-02-04T09:26:04.066Z,8.10
2018-02-04T09:27:04.021Z,8.40
2018-02-04T09:28:04.029Z,8.00
2018-02-04T09:29:03.964Z,8.00
2018-02-04T09:30:03.994Z,9.20
2018-02-04T09:31:03.853Z,8.70
2018-02-04T09:32:03.825Z,8.80
2018-02-04T09:33:03.772Z,9.00
2018-02-04T09:34:03.847Z,8.50
2018-02-04T09:35:03.714Z,8.80
2018-02-04T09:36:03.642Z,9.00
2018-02-04T09:37:03.605Z,9.20
2018-02-04T09:38:03.560Z,9.00
2018-02-04T09:39:03.517Z,8.80
2018-02-04T09:40:03.467Z,8.70
2018-02-04T09:41:03.455Z,9.00
2018-02-04T09:42:03.389Z,8.30
2018-02-04T09:43:03.339Z,8.60
2018-02-04T09:44:03.310Z,8.60
2018-02-04T09:45:03.264Z,9.10
2018-02-04T09:46:03.245Z,8.60
2018-02-04T09:47:03.172Z,9.20
2018-02-04T09:48:03.135Z,8.90
2018-02-04T09:49:03.088Z,9.50
2018-02-04T09:50:03.049Z,9.10
2018-02-04T09:51:03.036Z,9.00
2018-02-04T09:52:02.966Z,8.70
2018-02-04T09:53:02.920Z,9.10
2018-02-04T09:54:02.871Z,9.10
2018-02-04T09:55:02.831Z,9.50
2018-02-04T09:56:02.790Z,9.50
2018-02-04T09:57:02.767Z,9.20
2018-02-04T09:58:02.710Z,9.10
2018-02-04T09:59:02.659Z,9.70
2018-02-04T10:00:02.622Z,9.80
2018-02-04T10:01:02.572Z,9.80
2018-02-04T10:02:02.567Z,9.60
2018-02-04T10:03:02.489Z,10.10
2018-02-04T10:04:02.446Z,9.70
2018-02-04T10:05:02.403Z,9.90
2018-02-04T10:06:02.360Z,10.10
2018-02-04T10:07:02.317Z,10.10
2018-02-04T10:08:02.308Z,9.70
2018-02-04T10:09:02.253Z,10.40
2018-02-04T10:10:02.195Z,10.30
2018-02-04T10:11:02.156Z,10.70
2018-02-04T10:12:02.113Z,10.90
2018-02-04T10:13:02.098Z,10.70
2018-02-04T10:14:02.025Z,11.30
2018-02-04T10:15:01.977Z,11.30
2018-02-04T10:16:01.939Z,13.20
2018-02-04T10:17:01.897Z,13.40
2018-02-04T10:18:01.858Z,13.80
2018-02-04T10:19:01.844Z,13.40
2018-02-04T10:20:01.772Z,12.30
2018-02-04T10:21:01.724Z,13.00
2018-02-04T10:22:01.685Z,13.40
2018-02-04T10:23:01.641Z,13.40
2018-02-04T10:24:01.603Z,12.10
2018-02-04T10:25:01.585Z,12.60
2018-02-04T10:26:01.542Z,12.40
2018-02-04T10:27:01.479Z,12.20
2018-02-04T10:28:01.430Z,11.30
2018-02-04T10:29:01.396Z,12.00
2018-02-04T10:30:01.347Z,12.00
2018-02-04T10:31:01.370Z,11.80
2018-02-04T10:32:01.273Z,11.60
2018-02-04T10:33:01.234Z,12.00
2018-02-04T10:34:01.205Z,12.20
2018-02-04T10:35:01.236Z,12.30
2018-02-04T10:36:01.192Z,12.00
2018-02-04T10:37:01.395Z,11.90
2018-02-04T10:38:01.017Z,12.00
2018-02-04T10:39:01.173Z,11.40
2018-02-04T10:40:00.943Z,12.10
2018-02-04T10:41:00.912Z,11.60
2018-02-04T10:42:00.877Z,11.20
2018-02-04T10:43:00.809Z,10.40
2018-02-04T10:44:00.903Z,10.70
2018-02-04T10:45:00.734Z,10.20
2018-02-04T10:46:00.692Z,10.60
2018-02-04T10:47:00.683Z,11.60
2018-02-04T10:48:00.616Z,11.60
2018-02-04T10:49:00.571Z,11.50
2018-02-04T10:50:00.551Z,12.30
2018-02-04T10:51:00.477Z,12.00
2018-02-04T10:52:00.482Z,11.80
2018-02-04T10:53:00.391Z,8.40
2018-02-04T10:54:00.357Z,7.90
2018-02-04T10:55:00.313Z,7.10
2018-02-04T10:56:00.274Z,5.30
2018-02-04T10:57:00.340Z,5.60
2018-02-04T10:58:00.229Z,5.10
2018-02-04T10:59:00.153Z,4.70
2018-02-04T11:00:00.176Z,4.80
2018-02-04T11:01:00.152Z,5.00
2018-02-04T11:02:00.038Z,5.20
2018-02-04T11:03:00.024Z,6.00
2018-02-04T11:03:59.945Z,7.20
2018-02-04T11:04:59.906Z,7.00
2018-02-04T11:05:59.855Z,7.80
2018-02-04T11:06:59.966Z,7.80
2018-02-04T11:07:59.790Z,8.80
2018-02-04T11:08:59.768Z,8.60
2018-02-04T11:09:59.722Z,7.90
2018-02-04T11:10:59.645Z,7.30
2018-02-04T11:11:59.610Z,7.70
2018-02-04T11:12:59.554Z,7.90
2018-02-04T11:13:59.517Z,7.60
2018-02-04T11:14:59.490Z,7.70
2018-02-04T11:15:59.427Z,7.10
2018-02-04T11:16:59.413Z,7.40
2018-02-04T11:17:59.338Z,6.60
2018-02-04T11:18:59.291Z,6.80
2018-02-04T11:19:59.293Z,6.30
2018-02-04T11:20:59.204Z,6.60
2018-02-04T11:21:59.168Z,6.60
2018-02-04T11:22:59.127Z,6.60
2018-02-04T11:23:59.079Z,6.60
2018-02-04T11:24:59.041Z,6.90
2018-02-04T11:25:59.765Z,6.90
2018-02-04T11:26:59.012Z,7.30
2018-02-04T11:27:59.023Z,7.60
2018-02-04T11:28:59.215Z,7.70
2018-02-04T11:29:58.857Z,8.00
2018-02-04T11:30:58.819Z,7.40
2018-02-04T11:31:58.777Z,7.30
2018-02-04T11:32:58.744Z,7.60
2018-02-04T11:33:58.663Z,8.20
2018-02-04T11:34:58.610Z,8.50
2018-02-04T11:35:58.573Z,7.90
2018-02-04T11:36:58.587Z,8.40
2018-02-04T11:37:58.635Z,8.40
2018-02-04T11:38:58.449Z,8.80
2018-02-04T11:39:58.437Z,8.80
2018-02-04T11:40:58.352Z,9.20
2018-02-04T11:41:58.316Z,9.10
2018-02-04T11:42:58.380Z,9.60
2018-02-04T11:43:58.229Z,9.80
2018-02-04T11:44:58.175Z,9.70
2018-02-04T11:45:58.185Z,9.60
2018-02-04T11:46:58.114Z,10.00
2018-02-04T11:47:58.033Z,10.10
2018-02-04T11:48:58.042Z,9.70
2018-02-04T11:49:57.963Z,9.90
2018-02-04T11:50:57.926Z,10.30
2018-02-04T11:51:57.908Z,11.20
2018-02-04T11:52:57.832Z,11.00
2018-02-04T11:53:57.826Z,11.10
2018-02-04T11:54:57.726Z,11.20
2018-02-04T11:55:57.689Z,10.80
2018-02-04T11:56:57.647Z,10.50
2018-02-04T11:57:57.613Z,10.90
2018-02-04T12:00:14.456Z,11.20
2018-02-04T12:02:06.806Z,11.40
2018-02-04T12:02:59.820Z,10.60
2018-02-04T12:03:59.807Z,11.40
2018-02-04T12:04:57.331Z,11.60
2018-02-04T12:05:57.278Z,11.40
2018-02-04T12:06:57.303Z,11.70
2018-02-04T12:07:57.195Z,11.50
2018-02-04T12:08:57.123Z,11.10
2018-02-04T12:09:57.080Z,11.60
2018-02-04T12:10:57.074Z,12.20
2018-02-04T12:11:57.015Z,12.10
2018-02-04T12:12:56.944Z,11.90
2018-02-04T12:13:56.923Z,11.90
2018-02-04T12:14:57.177Z,11.60
2018-02-04T12:15:56.829Z,11.90
2018-02-04T12:16:56.814Z,12.40
2018-02-04T12:17:56.733Z,12.60
2018-02-04T12:18:56.687Z,11.90
2018-02-04T12:19:56.644Z,12.60
2018-02-04T12:20:56.605Z,11.90
2018-02-04T12:21:56.590Z,12.00
2018-02-04T12:22:56.513Z,11.90
2018-02-04T12:23:56.531Z,12.70
2018-02-04T12:24:56.436Z,11.20
2018-02-04T12:25:56.395Z,11.60
2018-02-04T12:26:56.337Z,12.00
2018-02-04T12:27:56.340Z,11.70
2018-02-04T12:28:56.297Z,11.60
2018-02-04T12:29:56.230Z,11.10
2018-02-04T12:30:56.178Z,11.60
2018-02-04T12:31:56.140Z,11.70
2018-02-04T12:32:56.093Z,11.60
2018-02-04T12:33:56.076Z,11.50
2018-02-04T12:34:56.003Z,11.00
2018-02-04T12:35:55.958Z,11.80
2018-02-04T12:36:55.910Z,11.20
2018-02-04T12:37:55.864Z,11.10
2018-02-04T12:38:55.828Z,10.80
2018-02-04T12:39:55.808Z,11.40
2018-02-04T12:40:55.741Z,11.20
2018-02-04T12:41:55.706Z,12.20
2018-02-04T12:42:55.660Z,12.60
2018-02-04T12:43:55.612Z,11.70
2018-02-04T12:44:55.598Z,12.30
2018-02-04T12:45:55.526Z,12.50
2018-02-04T12:46:55.486Z,13.20
2018-02-04T12:47:55.449Z,12.30
2018-02-04T12:48:55.410Z,12.30
2018-02-04T12:49:55.358Z,12.70
2018-02-04T12:50:55.354Z,12.90
2018-02-04T12:51:55.272Z,12.80
2018-02-04T12:52:55.233Z,13.50
2018-02-04T12:53:55.187Z,12.70
2018-02-04T12:54:55.151Z,12.20
2018-02-04T12:55:55.194Z,12.90
2018-02-04T12:56:55.109Z,12.50
2018-02-04T12:57:55.041Z,12.10
2018-02-04T12:58:54.977Z,11.80
2018-02-04T12:59:54.937Z,12.40
2018-02-04T13:00:54.884Z,11.80
2018-02-04T13:01:54.878Z,12.00
2018-02-04T13:02:54.809Z,12.00
2018-02-04T13:03:54.812Z,11.70
2018-02-04T13:04:54.718Z,11.70
2018-02-04T13:05:54.678Z,12.40